Terminal Aerodrome Forecast
Issued by NWS Topeka, KS

Home | Current Version | Previous Version | Graphics & Text | Print | Product List | Glossary On
Versions: 1 2 3 4 5 6 7 8 9 10 11 12 13 14 15 16
000
FTUS43 KTOP 121100
TAFTOP
TAF
KTOP 121120Z 1212/1312 19007KT P6SM SCT100 SCT250
     FM121500 21014G22KT P6SM SCT060
     FM130000 18008KT P6SM SCT100
     FM130900 26007KT P6SM VCTS BKN050CB=

USA.gov is the U.S. government's official web portal to all federal, state and local government web resources and services.